sensor_id;sensor_type;location;lat;lon;timestamp;P1;durP1;ratioP1;P2;durP2;ratioP2
76439;SDS011;65274;44.982;20.060;2022-11-20T00:01:52;21.98;;;13.30;;
76439;SDS011;65274;44.982;20.060;2022-11-20T00:04:18;25.35;;;13.38;;
76439;SDS011;65274;44.982;20.060;2022-11-20T00:06:44;27.52;;;13.75;;
76439;SDS011;65274;44.982;20.060;2022-11-20T00:09:10;24.45;;;13.63;;
76439;SDS011;65274;44.982;20.060;2022-11-20T00:11:36;21.58;;;13.10;;
76439;SDS011;65274;44.982;20.060;2022-11-20T00:14:02;19.30;;;10.88;;
76439;SDS011;65274;44.982;20.060;2022-11-20T00:16:29;18.55;;;11.27;;
76439;SDS011;65274;44.982;20.060;2022-11-20T00:18:56;16.30;;;10.10;;
76439;SDS011;65274;44.982;20.060;2022-11-20T00:21:23;15.65;;;9.32;;
76439;SDS011;65274;44.982;20.060;2022-11-20T00:23:49;15.02;;;9.00;;
76439;SDS011;65274;44.982;20.060;2022-11-20T00:26:17;15.70;;;9.55;;
76439;SDS011;65274;44.982;20.060;2022-11-20T00:28:44;17.83;;;9.87;;
76439;SDS011;65274;44.982;20.060;2022-11-20T00:31:11;19.10;;;10.00;;
76439;SDS011;65274;44.982;20.060;2022-11-20T00:33:37;16.33;;;9.30;;
76439;SDS011;65274;44.982;20.060;2022-11-20T00:36:05;19.20;;;10.85;;
76439;SDS011;65274;44.982;20.060;2022-11-20T00:38:31;16.17;;;9.37;;
76439;SDS011;65274;44.982;20.060;2022-11-20T00:40:58;19.20;;;11.23;;
76439;SDS011;65274;44.982;20.060;2022-11-20T00:43:25;15.35;;;9.55;;
76439;SDS011;65274;44.982;20.060;2022-11-20T00:45:56;19.65;;;11.00;;
76439;SDS011;65274;44.982;20.060;2022-11-20T00:48:22;18.00;;;10.35;;
76439;SDS011;65274;44.982;20.060;2022-11-20T00:50:48;18.98;;;11.15;;
76439;SDS011;65274;44.982;20.060;2022-11-20T00:53:14;18.88;;;10.43;;
76439;SDS011;65274;44.982;20.060;2022-11-20T00:55:40;18.80;;;10.57;;
76439;SDS011;65274;44.982;20.060;2022-11-20T00:58:06;15.57;;;9.82;;
76439;SDS011;65274;44.982;20.060;2022-11-20T01:00:32;16.63;;;9.55;;
76439;SDS011;65274;44.982;20.060;2022-11-20T01:02:58;21.13;;;11.85;;
76439;SDS011;65274;44.982;20.060;2022-11-20T01:05:24;15.82;;;10.02;;
76439;SDS011;65274;44.982;20.060;2022-11-20T01:07:50;16.25;;;9.98;;
76439;SDS011;65274;44.982;20.060;2022-11-20T01:10:16;16.67;;;10.52;;
76439;SDS011;65274;44.982;20.060;2022-11-20T01:12:42;17.08;;;10.90;;
76439;SDS011;65274;44.982;20.060;2022-11-20T01:15:28;21.45;;;12.40;;
76439;SDS011;65274;44.982;20.060;2022-11-20T01:17:54;20.02;;;11.82;;
76439;SDS011;65274;44.982;20.060;2022-11-20T01:20:20;23.70;;;12.27;;
76439;SDS011;65274;44.982;20.060;2022-11-20T01:22:46;20.52;;;12.18;;
76439;SDS011;65274;44.982;20.060;2022-11-20T01:25:12;19.85;;;12.05;;
76439;SDS011;65274;44.982;20.060;2022-11-20T01:27:38;22.13;;;12.80;;
76439;SDS011;65274;44.982;20.060;2022-11-20T01:30:05;17.38;;;11.50;;
76439;SDS011;65274;44.982;20.060;2022-11-20T01:32:31;20.92;;;11.98;;
76439;SDS011;65274;44.982;20.060;2022-11-20T01:34:57;20.95;;;11.00;;
76439;SDS011;65274;44.982;20.060;2022-11-20T01:37:23;21.20;;;12.45;;
76439;SDS011;65274;44.982;20.060;2022-11-20T01:39:49;23.00;;;13.52;;
76439;SDS011;65274;44.982;20.060;2022-11-20T01:42:15;20.67;;;13.32;;
76439;SDS011;65274;44.982;20.060;2022-11-20T01:45:00;22.58;;;12.80;;
76439;SDS011;65274;44.982;20.060;2022-11-20T01:47:43;25.88;;;13.88;;
76439;SDS011;65274;44.982;20.060;2022-11-20T01:50:18;22.88;;;13.93;;
76439;SDS011;65274;44.982;20.060;2022-11-20T01:52:52;20.13;;;12.40;;
76439;SDS011;65274;44.982;20.060;2022-11-20T01:55:20;22.50;;;12.38;;
76439;SDS011;65274;44.982;20.060;2022-11-20T01:57:47;21.05;;;13.05;;
76439;SDS011;65274;44.982;20.060;2022-11-20T02:00:15;21.23;;;12.52;;
76439;SDS011;65274;44.982;20.060;2022-11-20T02:02:42;24.17;;;13.40;;
76439;SDS011;65274;44.982;20.060;2022-11-20T02:05:23;20.35;;;12.45;;
76439;SDS011;65274;44.982;20.060;2022-11-20T02:07:51;22.05;;;12.48;;
76439;SDS011;65274;44.982;20.060;2022-11-20T02:10:18;23.00;;;12.90;;
76439;SDS011;65274;44.982;20.060;2022-11-20T02:12:44;22.77;;;12.38;;
76439;SDS011;65274;44.982;20.060;2022-11-20T02:15:29;21.58;;;13.10;;
76439;SDS011;65274;44.982;20.060;2022-11-20T02:17:55;23.52;;;13.35;;
76439;SDS011;65274;44.982;20.060;2022-11-20T02:20:21;22.25;;;13.75;;
76439;SDS011;65274;44.982;20.060;2022-11-20T02:23:08;21.60;;;13.02;;
76439;SDS011;65274;44.982;20.060;2022-11-20T02:25:33;20.00;;;12.45;;
76439;SDS011;65274;44.982;20.060;2022-11-20T02:28:00;26.25;;;14.82;;
76439;SDS011;65274;44.982;20.060;2022-11-20T02:30:27;23.42;;;13.52;;
76439;SDS011;65274;44.982;20.060;2022-11-20T02:32:53;23.48;;;14.45;;
76439;SDS011;65274;44.982;20.060;2022-11-20T02:37:46;32.60;;;16.63;;
76439;SDS011;65274;44.982;20.060;2022-11-20T02:42:39;28.33;;;14.65;;
76439;SDS011;65274;44.982;20.060;2022-11-20T02:45:05;26.73;;;14.27;;
76439;SDS011;65274;44.982;20.060;2022-11-20T02:47:32;27.17;;;15.18;;
76439;SDS011;65274;44.982;20.060;2022-11-20T02:49:58;26.63;;;15.20;;
76439;SDS011;65274;44.982;20.060;2022-11-20T02:52:24;24.27;;;14.73;;
76439;SDS011;65274;44.982;20.060;2022-11-20T02:54:50;29.05;;;15.35;;
76439;SDS011;65274;44.982;20.060;2022-11-20T02:57:16;24.38;;;13.60;;
76439;SDS011;65274;44.982;20.060;2022-11-20T02:59:42;28.33;;;15.30;;
76439;SDS011;65274;44.982;20.060;2022-11-20T03:02:08;31.42;;;16.65;;
76439;SDS011;65274;44.982;20.060;2022-11-20T03:04:34;30.30;;;17.25;;
76439;SDS011;65274;44.982;20.060;2022-11-20T03:07:01;31.40;;;18.10;;
76439;SDS011;65274;44.982;20.060;2022-11-20T03:09:27;32.47;;;18.33;;
76439;SDS011;65274;44.982;20.060;2022-11-20T03:11:53;30.23;;;17.92;;
76439;SDS011;65274;44.982;20.060;2022-11-20T03:14:19;28.92;;;17.40;;
76439;SDS011;65274;44.982;20.060;2022-11-20T03:16:45;33.25;;;18.75;;
76439;SDS011;65274;44.982;20.060;2022-11-20T03:19:11;34.55;;;17.67;;
76439;SDS011;65274;44.982;20.060;2022-11-20T03:21:37;35.65;;;17.38;;
76439;SDS011;65274;44.982;20.060;2022-11-20T03:24:04;32.72;;;18.25;;
76439;SDS011;65274;44.982;20.060;2022-11-20T03:26:30;28.38;;;16.67;;
76439;SDS011;65274;44.982;20.060;2022-11-20T03:29:00;35.38;;;19.05;;
76439;SDS011;65274;44.982;20.060;2022-11-20T03:31:31;29.15;;;16.48;;
76439;SDS011;65274;44.982;20.060;2022-11-20T03:33:58;32.08;;;18.65;;
76439;SDS011;65274;44.982;20.060;2022-11-20T03:36:25;28.70;;;17.30;;
76439;SDS011;65274;44.982;20.060;2022-11-20T03:38:52;30.27;;;16.67;;
76439;SDS011;65274;44.982;20.060;2022-11-20T03:41:22;29.95;;;18.23;;
76439;SDS011;65274;44.982;20.060;2022-11-20T03:43:49;30.45;;;16.10;;
76439;SDS011;65274;44.982;20.060;2022-11-20T03:46:16;34.05;;;17.25;;
76439;SDS011;65274;44.982;20.060;2022-11-20T03:48:42;38.80;;;17.77;;
76439;SDS011;65274;44.982;20.060;2022-11-20T03:51:12;27.55;;;16.70;;
76439;SDS011;65274;44.982;20.060;2022-11-20T03:53:42;27.40;;;17.33;;
76439;SDS011;65274;44.982;20.060;2022-11-20T03:56:09;33.65;;;18.92;;
76439;SDS011;65274;44.982;20.060;2022-11-20T03:58:35;34.78;;;18.73;;
76439;SDS011;65274;44.982;20.060;2022-11-20T04:01:08;34.60;;;18.10;;
76439;SDS011;65274;44.982;20.060;2022-11-20T04:03:35;31.13;;;17.90;;
76439;SDS011;65274;44.982;20.060;2022-11-20T04:06:21;32.60;;;17.30;;
76439;SDS011;65274;44.982;20.060;2022-11-20T04:08:47;35.50;;;19.90;;
76439;SDS011;65274;44.982;20.060;2022-11-20T04:11:14;37.28;;;18.30;;
76439;SDS011;65274;44.982;20.060;2022-11-20T04:13:41;41.33;;;18.17;;
76439;SDS011;65274;44.982;20.060;2022-11-20T04:16:08;37.13;;;18.55;;
76439;SDS011;65274;44.982;20.060;2022-11-20T04:18:34;29.42;;;16.17;;
76439;SDS011;65274;44.982;20.060;2022-11-20T04:21:01;32.22;;;17.42;;
76439;SDS011;65274;44.982;20.060;2022-11-20T04:23:27;30.40;;;17.48;;
76439;SDS011;65274;44.982;20.060;2022-11-20T04:25:53;37.67;;;17.25;;
76439;SDS011;65274;44.982;20.060;2022-11-20T04:28:19;33.75;;;17.17;;
76439;SDS011;65274;44.982;20.060;2022-11-20T04:30:46;38.72;;;18.05;;
76439;SDS011;65274;44.982;20.060;2022-11-20T04:33:12;30.13;;;16.55;;
76439;SDS011;65274;44.982;20.060;2022-11-20T04:35:38;28.50;;;16.33;;
76439;SDS011;65274;44.982;20.060;2022-11-20T04:38:04;29.75;;;16.48;;
76439;SDS011;65274;44.982;20.060;2022-11-20T04:40:30;30.58;;;14.65;;
76439;SDS011;65274;44.982;20.060;2022-11-20T04:42:56;31.00;;;14.25;;
76439;SDS011;65274;44.982;20.060;2022-11-20T04:45:22;23.95;;;13.20;;
76439;SDS011;65274;44.982;20.060;2022-11-20T04:47:48;30.20;;;14.40;;
76439;SDS011;65274;44.982;20.060;2022-11-20T04:50:15;29.95;;;15.65;;
76439;SDS011;65274;44.982;20.060;2022-11-20T04:52:41;25.55;;;13.65;;
76439;SDS011;65274;44.982;20.060;2022-11-20T04:55:07;26.83;;;15.35;;
76439;SDS011;65274;44.982;20.060;2022-11-20T04:57:33;21.95;;;11.80;;
76439;SDS011;65274;44.982;20.060;2022-11-20T04:59:59;24.00;;;13.15;;
76439;SDS011;65274;44.982;20.060;2022-11-20T05:02:25;23.65;;;12.13;;
76439;SDS011;65274;44.982;20.060;2022-11-20T05:04:51;24.40;;;12.00;;
76439;SDS011;65274;44.982;20.060;2022-11-20T05:07:17;21.95;;;11.15;;
76439;SDS011;65274;44.982;20.060;2022-11-20T05:09:44;23.25;;;11.93;;
76439;SDS011;65274;44.982;20.060;2022-11-20T05:12:10;22.98;;;10.68;;
76439;SDS011;65274;44.982;20.060;2022-11-20T05:14:36;20.13;;;10.68;;
76439;SDS011;65274;44.982;20.060;2022-11-20T05:17:02;21.33;;;9.90;;
76439;SDS011;65274;44.982;20.060;2022-11-20T05:19:28;20.98;;;11.80;;
76439;SDS011;65274;44.982;20.060;2022-11-20T05:21:54;21.73;;;11.18;;
76439;SDS011;65274;44.982;20.060;2022-11-20T05:24:20;22.75;;;10.50;;
76439;SDS011;65274;44.982;20.060;2022-11-20T05:26:46;22.35;;;11.07;;
76439;SDS011;65274;44.982;20.060;2022-11-20T05:29:13;19.50;;;11.52;;
76439;SDS011;65274;44.982;20.060;2022-11-20T05:31:39;23.98;;;12.00;;
76439;SDS011;65274;44.982;20.060;2022-11-20T05:34:06;20.42;;;10.68;;
76439;SDS011;65274;44.982;20.060;2022-11-20T05:36:32;16.45;;;10.32;;
76439;SDS011;65274;44.982;20.060;2022-11-20T05:38:58;20.55;;;10.35;;
76439;SDS011;65274;44.982;20.060;2022-11-20T05:41:24;16.63;;;10.00;;
76439;SDS011;65274;44.982;20.060;2022-11-20T05:43:51;16.08;;;8.95;;
76439;SDS011;65274;44.982;20.060;2022-11-20T05:46:18;21.13;;;8.85;;
76439;SDS011;65274;44.982;20.060;2022-11-20T05:48:45;24.48;;;11.20;;
76439;SDS011;65274;44.982;20.060;2022-11-20T05:51:13;17.23;;;8.75;;
76439;SDS011;65274;44.982;20.060;2022-11-20T05:53:39;18.23;;;10.23;;
76439;SDS011;65274;44.982;20.060;2022-11-20T05:56:10;19.38;;;10.02;;
76439;SDS011;65274;44.982;20.060;2022-11-20T05:58:37;23.95;;;11.55;;
76439;SDS011;65274;44.982;20.060;2022-11-20T06:01:04;20.33;;;10.68;;
76439;SDS011;65274;44.982;20.060;2022-11-20T06:03:30;19.05;;;9.63;;
76439;SDS011;65274;44.982;20.060;2022-11-20T06:05:56;16.77;;;9.13;;
76439;SDS011;65274;44.982;20.060;2022-11-20T06:08:24;26.23;;;11.35;;
76439;SDS011;65274;44.982;20.060;2022-11-20T06:10:50;27.42;;;11.43;;
76439;SDS011;65274;44.982;20.060;2022-11-20T06:13:16;26.55;;;12.18;;
76439;SDS011;65274;44.982;20.060;2022-11-20T06:15:42;27.75;;;12.00;;
76439;SDS011;65274;44.982;20.060;2022-11-20T06:18:08;23.20;;;11.70;;
76439;SDS011;65274;44.982;20.060;2022-11-20T06:20:34;29.73;;;11.95;;
76439;SDS011;65274;44.982;20.060;2022-11-20T06:23:00;27.70;;;12.90;;
76439;SDS011;65274;44.982;20.060;2022-11-20T06:25:26;26.23;;;13.32;;
76439;SDS011;65274;44.982;20.060;2022-11-20T06:27:52;28.02;;;13.18;;
76439;SDS011;65274;44.982;20.060;2022-11-20T06:30:18;24.90;;;13.60;;
76439;SDS011;65274;44.982;20.060;2022-11-20T06:32:44;30.48;;;15.25;;
76439;SDS011;65274;44.982;20.060;2022-11-20T06:35:10;26.88;;;13.65;;
76439;SDS011;65274;44.982;20.060;2022-11-20T06:37:36;30.05;;;15.35;;
76439;SDS011;65274;44.982;20.060;2022-11-20T06:40:02;27.70;;;14.65;;
76439;SDS011;65274;44.982;20.060;2022-11-20T06:42:28;26.83;;;14.30;;
76439;SDS011;65274;44.982;20.060;2022-11-20T06:44:54;23.15;;;13.23;;
76439;SDS011;65274;44.982;20.060;2022-11-20T06:47:20;29.25;;;14.50;;
76439;SDS011;65274;44.982;20.060;2022-11-20T06:49:46;30.83;;;15.43;;
76439;SDS011;65274;44.982;20.060;2022-11-20T06:52:12;33.63;;;16.92;;
76439;SDS011;65274;44.982;20.060;2022-11-20T06:54:38;34.20;;;15.82;;
76439;SDS011;65274;44.982;20.060;2022-11-20T06:57:04;37.67;;;16.90;;
76439;SDS011;65274;44.982;20.060;2022-11-20T06:59:30;33.88;;;15.98;;
76439;SDS011;65274;44.982;20.060;2022-11-20T07:01:57;35.20;;;16.27;;
76439;SDS011;65274;44.982;20.060;2022-11-20T07:04:23;39.88;;;17.30;;
76439;SDS011;65274;44.982;20.060;2022-11-20T07:06:49;33.13;;;16.98;;
76439;SDS011;65274;44.982;20.060;2022-11-20T07:09:15;29.30;;;15.60;;
76439;SDS011;65274;44.982;20.060;2022-11-20T07:11:41;33.80;;;16.60;;
76439;SDS011;65274;44.982;20.060;2022-11-20T07:14:07;34.17;;;18.38;;
76439;SDS011;65274;44.982;20.060;2022-11-20T07:16:33;33.75;;;19.50;;
76439;SDS011;65274;44.982;20.060;2022-11-20T07:18:59;30.33;;;15.85;;
76439;SDS011;65274;44.982;20.060;2022-11-20T07:21:25;29.83;;;15.23;;
76439;SDS011;65274;44.982;20.060;2022-11-20T07:23:51;27.17;;;14.73;;
76439;SDS011;65274;44.982;20.060;2022-11-20T07:26:17;40.42;;;22.67;;
76439;SDS011;65274;44.982;20.060;2022-11-20T07:28:44;34.95;;;18.58;;
76439;SDS011;65274;44.982;20.060;2022-11-20T07:31:10;26.90;;;14.68;;
76439;SDS011;65274;44.982;20.060;2022-11-20T07:33:38;26.20;;;15.30;;
76439;SDS011;65274;44.982;20.060;2022-11-20T07:36:04;150.40;;;61.33;;
76439;SDS011;65274;44.982;20.060;2022-11-20T07:38:30;246.13;;;113.35;;
76439;SDS011;65274;44.982;20.060;2022-11-20T07:40:56;511.42;;;294.02;;
76439;SDS011;65274;44.982;20.060;2022-11-20T07:43:23;211.40;;;103.15;;
76439;SDS011;65274;44.982;20.060;2022-11-20T07:45:50;201.90;;;99.28;;
76439;SDS011;65274;44.982;20.060;2022-11-20T07:48:16;557.53;;;273.35;;
76439;SDS011;65274;44.982;20.060;2022-11-20T07:50:42;498.55;;;264.75;;
76439;SDS011;65274;44.982;20.060;2022-11-20T07:53:08;579.10;;;316.85;;
76439;SDS011;65274;44.982;20.060;2022-11-20T07:55:34;370.60;;;196.90;;
76439;SDS011;65274;44.982;20.060;2022-11-20T07:58:00;154.68;;;91.78;;
76439;SDS011;65274;44.982;20.060;2022-11-20T08:00:26;345.00;;;153.15;;
76439;SDS011;65274;44.982;20.060;2022-11-20T08:02:52;436.75;;;180.68;;
76439;SDS011;65274;44.982;20.060;2022-11-20T08:05:18;683.22;;;329.33;;
76439;SDS011;65274;44.982;20.060;2022-11-20T08:07:45;508.35;;;228.15;;
76439;SDS011;65274;44.982;20.060;2022-11-20T08:10:12;421.02;;;179.18;;
76439;SDS011;65274;44.982;20.060;2022-11-20T08:12:48;188.15;;;85.68;;
76439;SDS011;65274;44.982;20.060;2022-11-20T08:15:33;527.63;;;220.73;;
76439;SDS011;65274;44.982;20.060;2022-11-20T08:18:03;522.80;;;230.57;;
76439;SDS011;65274;44.982;20.060;2022-11-20T08:20:30;367.65;;;163.07;;
76439;SDS011;65274;44.982;20.060;2022-11-20T08:23:00;408.95;;;178.73;;
76439;SDS011;65274;44.982;20.060;2022-11-20T08:25:26;315.20;;;138.43;;
76439;SDS011;65274;44.982;20.060;2022-11-20T08:27:53;302.33;;;135.63;;
76439;SDS011;65274;44.982;20.060;2022-11-20T08:30:19;314.42;;;130.77;;
76439;SDS011;65274;44.982;20.060;2022-11-20T08:32:45;257.30;;;117.32;;
76439;SDS011;65274;44.982;20.060;2022-11-20T08:35:11;670.00;;;373.90;;
76439;SDS011;65274;44.982;20.060;2022-11-20T08:37:37;487.88;;;259.98;;
76439;SDS011;65274;44.982;20.060;2022-11-20T08:42:32;418.02;;;226.60;;
76439;SDS011;65274;44.982;20.060;2022-11-20T08:44:58;186.73;;;111.75;;
76439;SDS011;65274;44.982;20.060;2022-11-20T08:47:24;197.25;;;116.68;;
76439;SDS011;65274;44.982;20.060;2022-11-20T08:49:50;195.35;;;106.18;;
76439;SDS011;65274;44.982;20.060;2022-11-20T08:52:16;67.55;;;44.03;;
76439;SDS011;65274;44.982;20.060;2022-11-20T08:54:42;114.68;;;61.17;;
76439;SDS011;65274;44.982;20.060;2022-11-20T08:57:08;68.13;;;42.72;;
76439;SDS011;65274;44.982;20.060;2022-11-20T08:59:34;63.85;;;43.85;;
76439;SDS011;65274;44.982;20.060;2022-11-20T09:02:01;61.88;;;43.42;;
76439;SDS011;65274;44.982;20.060;2022-11-20T09:04:27;268.90;;;124.35;;
76439;SDS011;65274;44.982;20.060;2022-11-20T09:06:53;380.88;;;157.57;;
76439;SDS011;65274;44.982;20.060;2022-11-20T09:09:19;645.20;;;338.63;;
76439;SDS011;65274;44.982;20.060;2022-11-20T09:11:45;481.13;;;228.15;;
76439;SDS011;65274;44.982;20.060;2022-11-20T09:14:11;604.92;;;290.83;;
76439;SDS011;65274;44.982;20.060;2022-11-20T09:16:37;779.92;;;441.17;;
76439;SDS011;65274;44.982;20.060;2022-11-20T09:19:03;305.27;;;157.25;;
76439;SDS011;65274;44.982;20.060;2022-11-20T09:21:30;210.10;;;135.25;;
76439;SDS011;65274;44.982;20.060;2022-11-20T09:23:56;160.10;;;120.13;;
76439;SDS011;65274;44.982;20.060;2022-11-20T09:26:22;50.88;;;35.20;;
76439;SDS011;65274;44.982;20.060;2022-11-20T09:28:48;66.25;;;45.88;;
76439;SDS011;65274;44.982;20.060;2022-11-20T09:31:21;83.53;;;53.03;;
76439;SDS011;65274;44.982;20.060;2022-11-20T09:33:48;93.90;;;47.60;;
76439;SDS011;65274;44.982;20.060;2022-11-20T09:36:14;134.15;;;80.32;;
76439;SDS011;65274;44.982;20.060;2022-11-20T09:38:41;71.53;;;41.42;;
76439;SDS011;65274;44.982;20.060;2022-11-20T09:41:16;72.07;;;41.08;;
76439;SDS011;65274;44.982;20.060;2022-11-20T09:46:21;76.10;;;43.13;;
76439;SDS011;65274;44.982;20.060;2022-11-20T09:54:21;84.07;;;48.95;;
76439;SDS011;65274;44.982;20.060;2022-11-20T09:56:50;108.78;;;60.35;;
76439;SDS011;65274;44.982;20.060;2022-11-20T09:59:25;84.85;;;49.42;;
76439;SDS011;65274;44.982;20.060;2022-11-20T10:01:52;86.32;;;46.08;;
76439;SDS011;65274;44.982;20.060;2022-11-20T10:04:19;77.70;;;47.38;;
76439;SDS011;65274;44.982;20.060;2022-11-20T10:16:55;60.85;;;33.17;;
76439;SDS011;65274;44.982;20.060;2022-11-20T10:29:29;47.92;;;28.05;;
76439;SDS011;65274;44.982;20.060;2022-11-20T10:32:08;48.15;;;31.20;;
76439;SDS011;65274;44.982;20.060;2022-11-20T10:34:50;47.30;;;30.77;;
76439;SDS011;65274;44.982;20.060;2022-11-20T10:37:21;43.67;;;26.20;;
76439;SDS011;65274;44.982;20.060;2022-11-20T10:43:04;79.55;;;44.05;;
76439;SDS011;65274;44.982;20.060;2022-11-20T10:46:12;54.22;;;31.40;;
76439;SDS011;65274;44.982;20.060;2022-11-20T10:56:21;58.78;;;32.10;;
76439;SDS011;65274;44.982;20.060;2022-11-20T11:01:39;95.93;;;49.55;;
76439;SDS011;65274;44.982;20.060;2022-11-20T11:04:07;60.03;;;33.22;;
76439;SDS011;65274;44.982;20.060;2022-11-20T11:06:40;60.80;;;32.80;;
76439;SDS011;65274;44.982;20.060;2022-11-20T11:09:11;100.95;;;49.55;;
76439;SDS011;65274;44.982;20.060;2022-11-20T11:11:39;82.85;;;43.75;;
76439;SDS011;65274;44.982;20.060;2022-11-20T11:16:31;204.15;;;98.72;;
76439;SDS011;65274;44.982;20.060;2022-11-20T11:19:04;129.50;;;64.20;;
76439;SDS011;65274;44.982;20.060;2022-11-20T11:21:31;148.23;;;70.22;;
76439;SDS011;65274;44.982;20.060;2022-11-20T11:23:58;251.93;;;113.35;;
76439;SDS011;65274;44.982;20.060;2022-11-20T11:26:24;339.33;;;139.52;;
76439;SDS011;65274;44.982;20.060;2022-11-20T11:28:55;157.30;;;76.03;;
76439;SDS011;65274;44.982;20.060;2022-11-20T11:31:21;162.05;;;69.07;;
76439;SDS011;65274;44.982;20.060;2022-11-20T11:33:48;236.30;;;106.22;;
76439;SDS011;65274;44.982;20.060;2022-11-20T11:36:19;356.67;;;146.82;;
76439;SDS011;65274;44.982;20.060;2022-11-20T11:38:48;285.08;;;123.18;;
76439;SDS011;65274;44.982;20.060;2022-11-20T11:41:18;387.15;;;162.60;;
76439;SDS011;65274;44.982;20.060;2022-11-20T11:46:30;306.50;;;134.20;;
76439;SDS011;65274;44.982;20.060;2022-11-20T11:49:01;275.75;;;126.05;;
76439;SDS011;65274;44.982;20.060;2022-11-20T11:51:28;239.68;;;118.55;;
76439;SDS011;65274;44.982;20.060;2022-11-20T11:53:58;272.38;;;124.68;;
76439;SDS011;65274;44.982;20.060;2022-11-20T11:56:24;204.00;;;89.57;;
76439;SDS011;65274;44.982;20.060;2022-11-20T11:58:51;233.00;;;103.80;;
76439;SDS011;65274;44.982;20.060;2022-11-20T12:01:24;188.90;;;79.85;;
76439;SDS011;65274;44.982;20.060;2022-11-20T12:04:04;136.45;;;63.40;;
76439;SDS011;65274;44.982;20.060;2022-11-20T12:06:31;286.92;;;124.78;;
76439;SDS011;65274;44.982;20.060;2022-11-20T12:08:59;133.07;;;66.43;;
76439;SDS011;65274;44.982;20.060;2022-11-20T12:14:04;217.73;;;106.45;;
76439;SDS011;65274;44.982;20.060;2022-11-20T12:16:36;211.52;;;103.25;;
76439;SDS011;65274;44.982;20.060;2022-11-20T12:19:03;222.27;;;105.50;;
76439;SDS011;65274;44.982;20.060;2022-11-20T12:29:13;67.13;;;35.25;;
76439;SDS011;65274;44.982;20.060;2022-11-20T12:31:45;47.38;;;25.30;;
76439;SDS011;65274;44.982;20.060;2022-11-20T12:42:03;38.90;;;22.55;;
76439;SDS011;65274;44.982;20.060;2022-11-20T12:45:10;42.83;;;21.73;;
76439;SDS011;65274;44.982;20.060;2022-11-20T12:55:03;50.20;;;24.25;;
76439;SDS011;65274;44.982;20.060;2022-11-20T12:57:39;58.72;;;26.65;;
76439;SDS011;65274;44.982;20.060;2022-11-20T13:00:10;58.95;;;29.02;;
76439;SDS011;65274;44.982;20.060;2022-11-20T13:07:50;54.40;;;27.60;;
76439;SDS011;65274;44.982;20.060;2022-11-20T13:10:38;44.67;;;22.75;;
76439;SDS011;65274;44.982;20.060;2022-11-20T13:13:14;50.65;;;26.77;;
76439;SDS011;65274;44.982;20.060;2022-11-20T13:18:11;44.05;;;22.77;;
76439;SDS011;65274;44.982;20.060;2022-11-20T13:20:42;38.35;;;19.05;;
76439;SDS011;65274;44.982;20.060;2022-11-20T13:23:08;40.85;;;20.20;;
76439;SDS011;65274;44.982;20.060;2022-11-20T13:25:35;41.33;;;21.55;;
76439;SDS011;65274;44.982;20.060;2022-11-20T13:28:44;42.00;;;22.67;;
76439;SDS011;65274;44.982;20.060;2022-11-20T13:30:52;58.72;;;32.03;;
76439;SDS011;65274;44.982;20.060;2022-11-20T13:35:59;50.40;;;25.98;;
76439;SDS011;65274;44.982;20.060;2022-11-20T13:38:26;57.17;;;28.67;;
76439;SDS011;65274;44.982;20.060;2022-11-20T13:40:56;53.53;;;26.88;;
76439;SDS011;65274;44.982;20.060;2022-11-20T13:43:27;81.63;;;39.65;;
76439;SDS011;65274;44.982;20.060;2022-11-20T13:45:57;93.57;;;43.35;;
76439;SDS011;65274;44.982;20.060;2022-11-20T13:48:26;72.90;;;35.33;;
76439;SDS011;65274;44.982;20.060;2022-11-20T13:58:56;63.25;;;30.98;;
76439;SDS011;65274;44.982;20.060;2022-11-20T14:01:25;127.78;;;56.72;;
76439;SDS011;65274;44.982;20.060;2022-11-20T14:03:52;197.68;;;80.30;;
76439;SDS011;65274;44.982;20.060;2022-11-20T14:06:28;167.45;;;77.15;;
76439;SDS011;65274;44.982;20.060;2022-11-20T14:08:58;103.97;;;49.15;;
76439;SDS011;65274;44.982;20.060;2022-11-20T14:11:28;207.35;;;94.90;;
76439;SDS011;65274;44.982;20.060;2022-11-20T14:16:21;81.50;;;40.75;;
76439;SDS011;65274;44.982;20.060;2022-11-20T14:18:47;124.85;;;59.20;;
76439;SDS011;65274;44.982;20.060;2022-11-20T14:21:23;178.52;;;76.53;;
76439;SDS011;65274;44.982;20.060;2022-11-20T14:23:51;205.77;;;93.75;;
76439;SDS011;65274;44.982;20.060;2022-11-20T14:26:19;250.65;;;110.97;;
76439;SDS011;65274;44.982;20.060;2022-11-20T14:28:47;197.13;;;86.00;;
76439;SDS011;65274;44.982;20.060;2022-11-20T14:31:18;286.98;;;117.07;;
76439;SDS011;65274;44.982;20.060;2022-11-20T14:33:47;332.10;;;134.90;;
76439;SDS011;65274;44.982;20.060;2022-11-20T14:36:16;208.23;;;91.85;;
76439;SDS011;65274;44.982;20.060;2022-11-20T14:38:44;317.58;;;127.53;;
76439;SDS011;65274;44.982;20.060;2022-11-20T14:41:20;323.15;;;127.88;;
76439;SDS011;65274;44.982;20.060;2022-11-20T14:43:47;135.07;;;60.30;;
76439;SDS011;65274;44.982;20.060;2022-11-20T14:46:13;315.08;;;119.63;;
76439;SDS011;65274;44.982;20.060;2022-11-20T14:48:41;338.23;;;131.88;;
76439;SDS011;65274;44.982;20.060;2022-11-20T14:51:10;132.93;;;60.42;;
76439;SDS011;65274;44.982;20.060;2022-11-20T14:53:36;104.07;;;46.78;;
76439;SDS011;65274;44.982;20.060;2022-11-20T14:56:02;175.13;;;75.43;;
76439;SDS011;65274;44.982;20.060;2022-11-20T14:58:30;225.52;;;93.70;;
76439;SDS011;65274;44.982;20.060;2022-11-20T15:03:32;414.67;;;161.38;;
76439;SDS011;65274;44.982;20.060;2022-11-20T15:05:59;230.65;;;93.55;;
76439;SDS011;65274;44.982;20.060;2022-11-20T15:08:25;216.85;;;82.38;;
76439;SDS011;65274;44.982;20.060;2022-11-20T15:10:52;237.23;;;87.93;;
76439;SDS011;65274;44.982;20.060;2022-11-20T15:13:31;450.65;;;174.75;;
76439;SDS011;65274;44.982;20.060;2022-11-20T15:15:58;94.55;;;42.85;;
76439;SDS011;65274;44.982;20.060;2022-11-20T15:18:29;266.58;;;117.93;;
76439;SDS011;65274;44.982;20.060;2022-11-20T15:20:56;366.92;;;152.82;;
76439;SDS011;65274;44.982;20.060;2022-11-20T15:23:23;465.90;;;225.43;;
76439;SDS011;65274;44.982;20.060;2022-11-20T15:25:49;252.70;;;122.78;;
76439;SDS011;65274;44.982;20.060;2022-11-20T15:28:16;232.52;;;114.60;;
76439;SDS011;65274;44.982;20.060;2022-11-20T15:30:47;349.10;;;180.20;;
76439;SDS011;65274;44.982;20.060;2022-11-20T15:33:14;308.48;;;153.43;;
76439;SDS011;65274;44.982;20.060;2022-11-20T15:35:40;269.20;;;133.85;;
76439;SDS011;65274;44.982;20.060;2022-11-20T15:38:06;259.33;;;136.50;;
76439;SDS011;65274;44.982;20.060;2022-11-20T15:40:33;236.05;;;121.05;;
76439;SDS011;65274;44.982;20.060;2022-11-20T15:42:59;86.82;;;45.50;;
76439;SDS011;65274;44.982;20.060;2022-11-20T15:45:28;182.60;;;88.15;;
76439;SDS011;65274;44.982;20.060;2022-11-20T15:47:55;255.93;;;118.37;;
76439;SDS011;65274;44.982;20.060;2022-11-20T15:50:21;98.68;;;46.78;;
76439;SDS011;65274;44.982;20.060;2022-11-20T15:52:51;62.78;;;30.92;;